Haig, Nebraska
Current Conditions -  °F | °C
As of 2:53 AM on Sunday 21 Dec 2014 (Local Time) from KBFF Reporting Station
Clear Clear  
Wind Chill: 20°   Ceiling: Unl
Heat Index: 20°   Visibility: 10mi
Dew Point: 16°   Wind: 3mph
Humidity: 85%   Direction: 20°NNE
Pressure: 29.78"   Gusts: NA
Location:  41.9575°N, 103.765°W
Report Text: KBFF 210953Z AUTO 02003KT 10SM CLR M07/M09 A2978 RMK AO2 SLP104 T10671089
Loading
Personal Weather Stations






























Interactive Weather Map New forecast layout! Learn more

10-Day Weather Forecast

Advertisements
Track Severe Weather on mobile